M. Luther — WDC7372 — position and weather

sailwx.info

Track history (hours):
 
Tides and Currents Weather Stations Pressure Air Temp Water Temp Dewpoint Dewpoint Depression Visibility Wind Speed Wind Dir Waves Ship Positions

M. Luther

Owner: Salmon Bay Barge Line, Inc., Seattle, WA. More information available from US FCC via Universal Licensing System and Coast Guard Vessel Documentation Center.

Last reported at 2016-May-02 18:29 UTC. Time now 2016-May-02 19:22 UTC.
Position N 49°09' W 123°00'.

Length 28 m; draft 4.1 m.

Type: Tow > 200 m length. MMSI: 367070410.

Date/timePositionNaut miles runAvg speedWind from/ knotsBaromVisibWave heightAir tempDewpointWater temp
2016-May-02 18:29N 49°09' W 123°00'0 0.0
2016-May-02 17:32N 49°09' W 123°00'0 0.0
2016-May-02 16:32N 49°09' W 123°00'0 0.0
2016-May-02 15:32N 49°09' W 123°00'0 0.0
2016-May-02 14:33N 49°09' W 123°00'3 3.2
2016-May-02 13:33N 49°08' W 123°04'5 4.6
2016-May-02 12:33N 49°07' W 123°11'5 5.1
2016-May-02 11:33N 49°06' W 123°19'4 4.2
2016-May-02 10:33N 49°02' W 123°16'6 5.7
2016-May-02 09:34N 48°58' W 123°10'6 6.2
2016-May-02 08:33N 48°54' W 123°03'6 6.4
2016-May-02 07:33N 48°50' W 122°55'6 6.4
2016-May-02 06:33N 48°46' W 122°48'6 5.8
2016-May-02 05:33N 48°41' W 122°42'7 7.2
2016-May-02 04:33N 48°34' W 122°45'7 7.1
2016-May-02 03:33N 48°27' W 122°44'6 6.2
2016-May-02 02:32N 48°21' W 122°45'7 6.7
2016-May-02 01:29N 48°14' W 122°48'8 8.7
2016-May-02 00:32N 48°08' W 122°40'9 9.1
2016-May-01 23:33N 47°60' W 122°35'8 8.2
2016-May-01 22:33N 47°53' W 122°28'7 7.4
2016-May-01 21:33N 47°46' W 122°25'7 7.0
2016-May-01 20:33N 47°39' W 122°27'6 5.5
2016-May-01 19:33N 47°35' W 122°22'1 1.4
2016-May-01 18:32N 47°33' W 122°21'0 0.0
2016-May-01 17:20N 47°33' W 122°21'0 0.0
2016-May-01 16:23N 47°33' W 122°21'0 0.0
2016-May-01 15:29N 47°33' W 122°21'0 0.0
2016-May-01 14:30N 47°33' W 122°21'0 0.0
2016-May-01 13:09N 47°33' W 122°21'0 0.0
2016-May-01 12:12N 47°33' W 122°21'0 0.0
2016-May-01 11:33N 47°33' W 122°21'0 0.0
2016-May-01 10:30N 47°33' W 122°21'0 0.0
2016-May-01 09:30N 47°33' W 122°21'0 0.0
2016-May-01 08:30N 47°33' W 122°21'0 0.0
2016-May-01 07:30N 47°33' W 122°21'0 0.0
2016-May-01 06:30N 47°33' W 122°21'0 0.0
2016-May-01 05:30N 47°33' W 122°21'0 0.0
2016-May-01 04:27N 47°33' W 122°21'0 0.0
2016-May-01 03:29N 47°33' W 122°21'0 0.0
2016-May-01 02:29N 47°33' W 122°21'0 0.0
2016-May-01 01:29N 47°33' W 122°21'0 0.0
2016-May-01 00:32N 47°33' W 122°21'  
Track history (hours):
 
Tides and Currents Weather Stations Pressure Air Temp Water Temp Dewpoint Dewpoint Depression Visibility Wind Speed Wind Dir Waves Ship Positions

M. Luther

Owner: Salmon Bay Barge Line, Inc., Seattle, WA. More information available from US FCC via Universal Licensing System and Coast Guard Vessel Documentation Center.

Last reported at 2016-May-02 18:29 UTC. Time now 2016-May-02 19:22 UTC.
Position N 49°09' W 123°00'.

Length 28 m; draft 4.1 m.

Type: Tow > 200 m length. MMSI: 367070410.

Date/timePositionNaut miles runAvg speedWind from/ knotsBaromVisibWave heightAir tempDewpointWater temp
2016-May-02 18:29N 49°09' W 123°00'0 0.0
2016-May-02 17:32N 49°09' W 123°00'0 0.0
2016-May-02 16:32N 49°09' W 123°00'0 0.0
2016-May-02 15:32N 49°09' W 123°00'0 0.0
2016-May-02 14:33N 49°09' W 123°00'3 3.2
2016-May-02 13:33N 49°08' W 123°04'5 4.6
2016-May-02 12:33N 49°07' W 123°11'5 5.1
2016-May-02 11:33N 49°06' W 123°19'4 4.2
2016-May-02 10:33N 49°02' W 123°16'6 5.7
2016-May-02 09:34N 48°58' W 123°10'6 6.2
2016-May-02 08:33N 48°54' W 123°03'6 6.4
2016-May-02 07:33N 48°50' W 122°55'6 6.4
2016-May-02 06:33N 48°46' W 122°48'6 5.8
2016-May-02 05:33N 48°41' W 122°42'7 7.2
2016-May-02 04:33N 48°34' W 122°45'7 7.1
2016-May-02 03:33N 48°27' W 122°44'6 6.2
2016-May-02 02:32N 48°21' W 122°45'7 6.7
2016-May-02 01:29N 48°14' W 122°48'8 8.7
2016-May-02 00:32N 48°08' W 122°40'9 9.1
2016-May-01 23:33N 47°60' W 122°35'8 8.2
2016-May-01 22:33N 47°53' W 122°28'7 7.4
2016-May-01 21:33N 47°46' W 122°25'7 7.0
2016-May-01 20:33N 47°39' W 122°27'6 5.5
2016-May-01 19:33N 47°35' W 122°22'1 1.4
2016-May-01 18:32N 47°33' W 122°21'0 0.0
2016-May-01 17:20N 47°33' W 122°21'0 0.0
2016-May-01 16:23N 47°33' W 122°21'0 0.0
2016-May-01 15:29N 47°33' W 122°21'0 0.0
2016-May-01 14:30N 47°33' W 122°21'0 0.0
2016-May-01 13:09N 47°33' W 122°21'0 0.0
2016-May-01 12:12N 47°33' W 122°21'0 0.0
2016-May-01 11:33N 47°33' W 122°21'0 0.0
2016-May-01 10:30N 47°33' W 122°21'0 0.0
2016-May-01 09:30N 47°33' W 122°21'0 0.0
2016-May-01 08:30N 47°33' W 122°21'0 0.0
2016-May-01 07:30N 47°33' W 122°21'0 0.0
2016-May-01 06:30N 47°33' W 122°21'0 0.0
2016-May-01 05:30N 47°33' W 122°21'0 0.0
2016-May-01 04:27N 47°33' W 122°21'0 0.0
2016-May-01 03:29N 47°33' W 122°21'0 0.0
2016-May-01 02:29N 47°33' W 122°21'0 0.0
2016-May-01 01:29N 47°33' W 122°21'0 0.0
2016-May-01 00:32N 47°33' W 122°21'  

Dump ship's entire track history